sensor_id;sensor_type;location;lat;lon;timestamp;P1;durP1;ratioP1;P2;durP2;ratioP2
34317;SDS011;20582;52.196;20.952;2023-02-13T00:01:10;65.38;;;27.58;;
34317;SDS011;20582;52.196;20.952;2023-02-13T00:03:36;62.78;;;27.38;;
34317;SDS011;20582;52.196;20.952;2023-02-13T00:06:02;62.97;;;26.50;;
34317;SDS011;20582;52.196;20.952;2023-02-13T00:08:28;64.97;;;27.67;;
34317;SDS011;20582;52.196;20.952;2023-02-13T00:10:54;59.20;;;24.80;;
34317;SDS011;20582;52.196;20.952;2023-02-13T00:13:20;60.60;;;25.20;;
34317;SDS011;20582;52.196;20.952;2023-02-13T00:15:54;57.92;;;24.38;;
34317;SDS011;20582;52.196;20.952;2023-02-13T00:18:20;58.00;;;24.70;;
34317;SDS011;20582;52.196;20.952;2023-02-13T00:20:55;62.50;;;24.40;;
34317;SDS011;20582;52.196;20.952;2023-02-13T00:23:21;49.38;;;23.88;;
34317;SDS011;20582;52.196;20.952;2023-02-13T00:25:47;51.88;;;23.58;;
34317;SDS011;20582;52.196;20.952;2023-02-13T00:28:13;50.67;;;22.50;;
34317;SDS011;20582;52.196;20.952;2023-02-13T00:30:39;52.70;;;23.30;;
34317;SDS011;20582;52.196;20.952;2023-02-13T00:33:05;56.42;;;22.70;;
34317;SDS011;20582;52.196;20.952;2023-02-13T00:35:31;54.33;;;24.58;;
34317;SDS011;20582;52.196;20.952;2023-02-13T00:37:57;46.47;;;22.10;;
34317;SDS011;20582;52.196;20.952;2023-02-13T00:40:23;50.65;;;23.35;;
34317;SDS011;20582;52.196;20.952;2023-02-13T00:42:49;56.63;;;24.80;;
34317;SDS011;20582;52.196;20.952;2023-02-13T00:45:15;52.50;;;23.73;;
34317;SDS011;20582;52.196;20.952;2023-02-13T00:47:41;45.03;;;21.63;;
34317;SDS011;20582;52.196;20.952;2023-02-13T00:50:07;47.47;;;21.83;;
34317;SDS011;20582;52.196;20.952;2023-02-13T00:52:33;52.65;;;22.75;;
34317;SDS011;20582;52.196;20.952;2023-02-13T00:54:59;48.58;;;21.45;;
34317;SDS011;20582;52.196;20.952;2023-02-13T00:57:25;48.22;;;22.92;;
34317;SDS011;20582;52.196;20.952;2023-02-13T00:59:51;46.33;;;20.65;;
34317;SDS011;20582;52.196;20.952;2023-02-13T01:02:17;45.78;;;20.67;;
34317;SDS011;20582;52.196;20.952;2023-02-13T01:04:43;53.95;;;24.13;;
34317;SDS011;20582;52.196;20.952;2023-02-13T01:07:09;52.10;;;22.42;;
34317;SDS011;20582;52.196;20.952;2023-02-13T01:09:35;52.60;;;21.63;;
34317;SDS011;20582;52.196;20.952;2023-02-13T01:12:01;47.65;;;22.77;;
34317;SDS011;20582;52.196;20.952;2023-02-13T01:14:27;51.47;;;22.63;;
34317;SDS011;20582;52.196;20.952;2023-02-13T01:16:52;54.50;;;23.40;;
34317;SDS011;20582;52.196;20.952;2023-02-13T01:19:18;47.47;;;22.20;;
34317;SDS011;20582;52.196;20.952;2023-02-13T01:21:44;48.38;;;22.33;;
34317;SDS011;20582;52.196;20.952;2023-02-13T01:24:10;46.05;;;20.73;;
34317;SDS011;20582;52.196;20.952;2023-02-13T01:26:36;50.15;;;22.13;;
34317;SDS011;20582;52.196;20.952;2023-02-13T01:29:02;47.47;;;21.42;;
34317;SDS011;20582;52.196;20.952;2023-02-13T01:31:28;48.97;;;21.83;;
34317;SDS011;20582;52.196;20.952;2023-02-13T01:33:55;50.15;;;21.58;;
34317;SDS011;20582;52.196;20.952;2023-02-13T01:36:21;51.85;;;23.73;;
34317;SDS011;20582;52.196;20.952;2023-02-13T01:38:51;53.80;;;23.83;;
34317;SDS011;20582;52.196;20.952;2023-02-13T01:41:17;49.22;;;22.98;;
34317;SDS011;20582;52.196;20.952;2023-02-13T01:43:46;49.30;;;23.27;;
34317;SDS011;20582;52.196;20.952;2023-02-13T01:46:14;50.45;;;22.27;;
34317;SDS011;20582;52.196;20.952;2023-02-13T01:48:41;51.17;;;23.17;;
34317;SDS011;20582;52.196;20.952;2023-02-13T01:51:07;50.90;;;22.65;;
34317;SDS011;20582;52.196;20.952;2023-02-13T01:53:35;43.95;;;22.58;;
34317;SDS011;20582;52.196;20.952;2023-02-13T01:56:11;48.83;;;23.15;;
34317;SDS011;20582;52.196;20.952;2023-02-13T01:58:38;47.88;;;22.63;;
34317;SDS011;20582;52.196;20.952;2023-02-13T02:01:05;45.00;;;21.13;;
34317;SDS011;20582;52.196;20.952;2023-02-13T02:05:58;50.70;;;21.58;;
34317;SDS011;20582;52.196;20.952;2023-02-13T02:08:25;50.00;;;22.77;;
34317;SDS011;20582;52.196;20.952;2023-02-13T02:10:52;50.53;;;21.92;;
34317;SDS011;20582;52.196;20.952;2023-02-13T02:13:20;43.33;;;20.98;;
34317;SDS011;20582;52.196;20.952;2023-02-13T02:15:47;47.92;;;21.63;;
34317;SDS011;20582;52.196;20.952;2023-02-13T02:18:14;45.05;;;20.73;;
34317;SDS011;20582;52.196;20.952;2023-02-13T02:33:58;43.88;;;18.95;;
34317;SDS011;20582;52.196;20.952;2023-02-13T02:39:17;41.03;;;20.83;;
34317;SDS011;20582;52.196;20.952;2023-02-13T02:44:25;42.63;;;17.60;;
34317;SDS011;20582;52.196;20.952;2023-02-13T02:47:14;37.88;;;18.27;;
34317;SDS011;20582;52.196;20.952;2023-02-13T02:53:06;39.28;;;18.55;;
34317;SDS011;20582;52.196;20.952;2023-02-13T03:01:08;40.45;;;17.58;;
34317;SDS011;20582;52.196;20.952;2023-02-13T03:03:55;42.88;;;18.55;;
34317;SDS011;20582;52.196;20.952;2023-02-13T03:09:10;43.05;;;18.30;;
34317;SDS011;20582;52.196;20.952;2023-02-13T03:11:57;37.42;;;17.92;;
34317;SDS011;20582;52.196;20.952;2023-02-13T03:14:58;36.88;;;17.75;;
34317;SDS011;20582;52.196;20.952;2023-02-13T03:17:24;40.95;;;17.73;;
34317;SDS011;20582;52.196;20.952;2023-02-13T03:20:25;38.75;;;18.63;;
34317;SDS011;20582;52.196;20.952;2023-02-13T03:26:02;36.67;;;17.60;;
34317;SDS011;20582;52.196;20.952;2023-02-13T03:31:37;38.63;;;18.13;;
34317;SDS011;20582;52.196;20.952;2023-02-13T03:34:05;41.88;;;17.50;;
34317;SDS011;20582;52.196;20.952;2023-02-13T03:39:21;45.13;;;18.70;;
34317;SDS011;20582;52.196;20.952;2023-02-13T03:41:57;42.33;;;19.75;;
34317;SDS011;20582;52.196;20.952;2023-02-13T03:44:43;38.38;;;17.10;;
34317;SDS011;20582;52.196;20.952;2023-02-13T03:47:11;38.55;;;17.42;;
34317;SDS011;20582;52.196;20.952;2023-02-13T03:49:47;39.33;;;19.10;;
34317;SDS011;20582;52.196;20.952;2023-02-13T03:54:56;41.95;;;19.25;;
34317;SDS011;20582;52.196;20.952;2023-02-13T03:57:42;41.28;;;19.52;;
34317;SDS011;20582;52.196;20.952;2023-02-13T04:00:29;42.88;;;19.95;;
34317;SDS011;20582;52.196;20.952;2023-02-13T04:03:00;41.97;;;19.37;;
34317;SDS011;20582;52.196;20.952;2023-02-13T04:05:31;37.08;;;18.70;;
34317;SDS011;20582;52.196;20.952;2023-02-13T04:07:59;43.33;;;18.02;;
34317;SDS011;20582;52.196;20.952;2023-02-13T04:10:25;45.83;;;24.50;;
34317;SDS011;20582;52.196;20.952;2023-02-13T04:13:02;40.03;;;18.40;;
34317;SDS011;20582;52.196;20.952;2023-02-13T04:15:40;37.42;;;18.30;;
34317;SDS011;20582;52.196;20.952;2023-02-13T04:18:23;40.90;;;19.08;;
34317;SDS011;20582;52.196;20.952;2023-02-13T04:20:51;40.28;;;19.88;;
34317;SDS011;20582;52.196;20.952;2023-02-13T04:23:17;37.15;;;18.75;;
34317;SDS011;20582;52.196;20.952;2023-02-13T04:25:45;36.42;;;17.70;;
34317;SDS011;20582;52.196;20.952;2023-02-13T04:28:12;41.35;;;18.98;;
34317;SDS011;20582;52.196;20.952;2023-02-13T04:30:38;40.47;;;20.10;;
34317;SDS011;20582;52.196;20.952;2023-02-13T04:33:04;41.90;;;20.45;;
34317;SDS011;20582;52.196;20.952;2023-02-13T04:35:30;40.22;;;20.25;;
34317;SDS011;20582;52.196;20.952;2023-02-13T04:37:56;41.53;;;20.48;;
34317;SDS011;20582;52.196;20.952;2023-02-13T04:40:22;43.95;;;21.10;;
34317;SDS011;20582;52.196;20.952;2023-02-13T04:42:48;40.20;;;20.15;;
34317;SDS011;20582;52.196;20.952;2023-02-13T04:45:14;41.25;;;20.17;;
34317;SDS011;20582;52.196;20.952;2023-02-13T04:47:40;38.47;;;20.10;;
34317;SDS011;20582;52.196;20.952;2023-02-13T04:50:06;43.08;;;20.88;;
34317;SDS011;20582;52.196;20.952;2023-02-13T04:52:32;42.03;;;20.10;;
34317;SDS011;20582;52.196;20.952;2023-02-13T04:54:58;42.10;;;20.63;;
34317;SDS011;20582;52.196;20.952;2023-02-13T04:57:24;41.05;;;19.25;;
34317;SDS011;20582;52.196;20.952;2023-02-13T04:59:50;40.33;;;19.50;;
34317;SDS011;20582;52.196;20.952;2023-02-13T05:02:16;44.38;;;21.38;;
34317;SDS011;20582;52.196;20.952;2023-02-13T05:04:42;38.40;;;18.60;;
34317;SDS011;20582;52.196;20.952;2023-02-13T05:07:08;41.33;;;21.08;;
34317;SDS011;20582;52.196;20.952;2023-02-13T05:09:34;47.33;;;20.70;;
34317;SDS011;20582;52.196;20.952;2023-02-13T05:11:59;44.78;;;20.63;;
34317;SDS011;20582;52.196;20.952;2023-02-13T05:14:25;39.60;;;18.60;;
34317;SDS011;20582;52.196;20.952;2023-02-13T05:16:52;40.00;;;20.17;;
34317;SDS011;20582;52.196;20.952;2023-02-13T05:19:18;40.28;;;20.23;;
34317;SDS011;20582;52.196;20.952;2023-02-13T05:21:44;42.05;;;19.30;;
34317;SDS011;20582;52.196;20.952;2023-02-13T05:24:29;38.75;;;19.30;;
34317;SDS011;20582;52.196;20.952;2023-02-13T05:26:55;37.55;;;17.33;;
34317;SDS011;20582;52.196;20.952;2023-02-13T05:29:21;39.22;;;18.73;;
34317;SDS011;20582;52.196;20.952;2023-02-13T05:31:51;38.45;;;18.58;;
34317;SDS011;20582;52.196;20.952;2023-02-13T05:34:18;35.88;;;18.02;;
34317;SDS011;20582;52.196;20.952;2023-02-13T05:36:44;37.15;;;18.67;;
34317;SDS011;20582;52.196;20.952;2023-02-13T05:39:10;39.00;;;19.52;;
34317;SDS011;20582;52.196;20.952;2023-02-13T05:41:36;39.78;;;19.20;;
34317;SDS011;20582;52.196;20.952;2023-02-13T05:44:02;36.88;;;18.92;;
34317;SDS011;20582;52.196;20.952;2023-02-13T05:46:28;43.00;;;19.00;;
34317;SDS011;20582;52.196;20.952;2023-02-13T05:48:54;41.10;;;21.23;;
34317;SDS011;20582;52.196;20.952;2023-02-13T05:51:20;36.42;;;18.42;;
34317;SDS011;20582;52.196;20.952;2023-02-13T05:53:46;39.63;;;18.27;;
34317;SDS011;20582;52.196;20.952;2023-02-13T05:56:12;43.03;;;18.60;;
34317;SDS011;20582;52.196;20.952;2023-02-13T05:58:38;43.22;;;20.02;;
34317;SDS011;20582;52.196;20.952;2023-02-13T06:01:03;58.70;;;26.05;;
34317;SDS011;20582;52.196;20.952;2023-02-13T06:03:30;61.05;;;26.60;;
34317;SDS011;20582;52.196;20.952;2023-02-13T06:05:56;71.68;;;33.17;;
34317;SDS011;20582;52.196;20.952;2023-02-13T06:08:22;50.92;;;25.00;;
34317;SDS011;20582;52.196;20.952;2023-02-13T06:10:48;42.30;;;21.98;;
34317;SDS011;20582;52.196;20.952;2023-02-13T06:13:15;42.58;;;21.85;;
34317;SDS011;20582;52.196;20.952;2023-02-13T06:15:41;37.97;;;19.27;;
34317;SDS011;20582;52.196;20.952;2023-02-13T06:18:07;39.28;;;18.58;;
34317;SDS011;20582;52.196;20.952;2023-02-13T06:22:59;62.33;;;25.67;;
34317;SDS011;20582;52.196;20.952;2023-02-13T06:25:25;65.78;;;25.67;;
34317;SDS011;20582;52.196;20.952;2023-02-13T06:27:51;92.72;;;30.45;;
34317;SDS011;20582;52.196;20.952;2023-02-13T06:30:17;58.40;;;23.02;;
34317;SDS011;20582;52.196;20.952;2023-02-13T06:32:44;71.90;;;27.00;;
34317;SDS011;20582;52.196;20.952;2023-02-13T06:35:11;68.35;;;26.38;;
34317;SDS011;20582;52.196;20.952;2023-02-13T06:37:37;86.78;;;30.63;;
34317;SDS011;20582;52.196;20.952;2023-02-13T06:40:04;58.53;;;24.30;;
34317;SDS011;20582;52.196;20.952;2023-02-13T06:42:30;46.50;;;21.80;;
34317;SDS011;20582;52.196;20.952;2023-02-13T06:44:56;40.72;;;18.40;;
34317;SDS011;20582;52.196;20.952;2023-02-13T06:47:22;43.83;;;19.30;;
34317;SDS011;20582;52.196;20.952;2023-02-13T06:49:47;44.03;;;19.90;;
34317;SDS011;20582;52.196;20.952;2023-02-13T06:52:13;46.00;;;21.63;;
34317;SDS011;20582;52.196;20.952;2023-02-13T06:54:39;43.55;;;20.20;;
34317;SDS011;20582;52.196;20.952;2023-02-13T06:57:05;33.92;;;16.70;;
34317;SDS011;20582;52.196;20.952;2023-02-13T06:59:31;37.33;;;16.98;;
34317;SDS011;20582;52.196;20.952;2023-02-13T07:01:57;36.10;;;17.20;;
34317;SDS011;20582;52.196;20.952;2023-02-13T07:04:23;34.10;;;15.35;;
34317;SDS011;20582;52.196;20.952;2023-02-13T07:06:49;34.78;;;15.35;;
34317;SDS011;20582;52.196;20.952;2023-02-13T07:09:15;34.55;;;14.88;;
34317;SDS011;20582;52.196;20.952;2023-02-13T07:11:41;29.58;;;14.95;;
34317;SDS011;20582;52.196;20.952;2023-02-13T07:14:07;32.67;;;15.45;;
34317;SDS011;20582;52.196;20.952;2023-02-13T07:16:33;28.27;;;13.70;;
34317;SDS011;20582;52.196;20.952;2023-02-13T07:18:59;33.45;;;15.15;;
34317;SDS011;20582;52.196;20.952;2023-02-13T07:21:25;31.67;;;15.25;;
34317;SDS011;20582;52.196;20.952;2023-02-13T07:23:51;37.42;;;18.83;;
34317;SDS011;20582;52.196;20.952;2023-02-13T07:26:17;49.70;;;21.25;;
34317;SDS011;20582;52.196;20.952;2023-02-13T07:28:44;57.63;;;21.92;;
34317;SDS011;20582;52.196;20.952;2023-02-13T07:31:10;118.18;;;39.08;;
34317;SDS011;20582;52.196;20.952;2023-02-13T07:33:36;74.78;;;28.05;;
34317;SDS011;20582;52.196;20.952;2023-02-13T07:36:02;71.57;;;24.25;;
34317;SDS011;20582;52.196;20.952;2023-02-13T07:38:28;60.58;;;21.02;;
34317;SDS011;20582;52.196;20.952;2023-02-13T07:41:01;55.30;;;20.55;;
34317;SDS011;20582;52.196;20.952;2023-02-13T07:43:28;80.63;;;24.90;;
34317;SDS011;20582;52.196;20.952;2023-02-13T07:45:59;73.13;;;25.50;;
34317;SDS011;20582;52.196;20.952;2023-02-13T07:48:25;77.20;;;25.85;;
34317;SDS011;20582;52.196;20.952;2023-02-13T07:50:52;73.80;;;25.38;;
34317;SDS011;20582;52.196;20.952;2023-02-13T07:53:18;53.67;;;18.17;;
34317;SDS011;20582;52.196;20.952;2023-02-13T07:55:44;40.72;;;16.17;;
34317;SDS011;20582;52.196;20.952;2023-02-13T07:58:10;34.80;;;14.90;;
34317;SDS011;20582;52.196;20.952;2023-02-13T08:00:36;36.20;;;14.70;;
34317;SDS011;20582;52.196;20.952;2023-02-13T08:03:02;40.83;;;18.10;;
34317;SDS011;20582;52.196;20.952;2023-02-13T08:05:28;30.05;;;13.55;;
34317;SDS011;20582;52.196;20.952;2023-02-13T08:07:55;27.08;;;12.75;;
34317;SDS011;20582;52.196;20.952;2023-02-13T08:10:21;22.83;;;12.00;;
34317;SDS011;20582;52.196;20.952;2023-02-13T08:13:06;24.42;;;13.48;;
34317;SDS011;20582;52.196;20.952;2023-02-13T08:15:33;28.02;;;13.23;;
34317;SDS011;20582;52.196;20.952;2023-02-13T08:17:59;26.52;;;12.80;;
34317;SDS011;20582;52.196;20.952;2023-02-13T08:20:25;21.30;;;11.70;;
34317;SDS011;20582;52.196;20.952;2023-02-13T08:22:51;23.23;;;12.00;;
34317;SDS011;20582;52.196;20.952;2023-02-13T08:25:17;21.95;;;10.93;;
34317;SDS011;20582;52.196;20.952;2023-02-13T08:27:43;18.73;;;10.18;;
34317;SDS011;20582;52.196;20.952;2023-02-13T08:30:10;21.70;;;9.77;;
34317;SDS011;20582;52.196;20.952;2023-02-13T08:32:36;21.13;;;9.85;;
34317;SDS011;20582;52.196;20.952;2023-02-13T08:35:02;17.85;;;9.35;;
34317;SDS011;20582;52.196;20.952;2023-02-13T08:37:28;20.05;;;8.77;;
34317;SDS011;20582;52.196;20.952;2023-02-13T08:39:54;16.67;;;8.10;;
34317;SDS011;20582;52.196;20.952;2023-02-13T08:42:20;19.00;;;9.32;;
34317;SDS011;20582;52.196;20.952;2023-02-13T08:44:46;16.30;;;8.05;;
34317;SDS011;20582;52.196;20.952;2023-02-13T08:47:12;15.23;;;8.45;;
34317;SDS011;20582;52.196;20.952;2023-02-13T08:49:38;16.17;;;7.82;;
34317;SDS011;20582;52.196;20.952;2023-02-13T08:52:04;15.45;;;8.07;;
34317;SDS011;20582;52.196;20.952;2023-02-13T08:54:32;20.40;;;8.35;;
34317;SDS011;20582;52.196;20.952;2023-02-13T08:56:58;14.38;;;8.05;;
34317;SDS011;20582;52.196;20.952;2023-02-13T08:59:24;19.85;;;8.63;;
34317;SDS011;20582;52.196;20.952;2023-02-13T09:01:50;18.80;;;8.35;;
34317;SDS011;20582;52.196;20.952;2023-02-13T09:04:16;18.98;;;8.10;;
34317;SDS011;20582;52.196;20.952;2023-02-13T09:06:43;36.92;;;15.07;;
34317;SDS011;20582;52.196;20.952;2023-02-13T09:09:09;48.05;;;18.33;;
34317;SDS011;20582;52.196;20.952;2023-02-13T09:11:35;25.63;;;10.65;;
34317;SDS011;20582;52.196;20.952;2023-02-13T09:14:01;40.95;;;16.75;;
34317;SDS011;20582;52.196;20.952;2023-02-13T09:16:27;19.25;;;8.70;;
34317;SDS011;20582;52.196;20.952;2023-02-13T09:18:53;29.00;;;14.05;;
34317;SDS011;20582;52.196;20.952;2023-02-13T09:21:19;25.15;;;11.38;;
34317;SDS011;20582;52.196;20.952;2023-02-13T09:23:49;26.27;;;12.93;;
34317;SDS011;20582;52.196;20.952;2023-02-13T09:26:16;20.73;;;9.10;;
34317;SDS011;20582;52.196;20.952;2023-02-13T09:28:42;17.77;;;9.90;;
34317;SDS011;20582;52.196;20.952;2023-02-13T09:31:10;20.10;;;9.55;;
34317;SDS011;20582;52.196;20.952;2023-02-13T09:33:39;25.13;;;11.70;;
34317;SDS011;20582;52.196;20.952;2023-02-13T09:36:06;19.73;;;10.63;;
34317;SDS011;20582;52.196;20.952;2023-02-13T09:38:32;18.40;;;9.60;;
34317;SDS011;20582;52.196;20.952;2023-02-13T09:41:03;16.52;;;8.07;;
34317;SDS011;20582;52.196;20.952;2023-02-13T09:43:34;15.32;;;8.70;;
34317;SDS011;20582;52.196;20.952;2023-02-13T09:46:08;15.50;;;9.57;;
34317;SDS011;20582;52.196;20.952;2023-02-13T09:48:35;18.83;;;9.82;;
34317;SDS011;20582;52.196;20.952;2023-02-13T09:51:02;19.30;;;10.55;;
34317;SDS011;20582;52.196;20.952;2023-02-13T09:53:29;19.98;;;10.43;;
34317;SDS011;20582;52.196;20.952;2023-02-13T10:01:03;18.88;;;9.60;;
34317;SDS011;20582;52.196;20.952;2023-02-13T10:03:31;20.58;;;10.02;;
34317;SDS011;20582;52.196;20.952;2023-02-13T10:16:13;22.17;;;12.50;;
34317;SDS011;20582;52.196;20.952;2023-02-13T10:21:38;24.75;;;12.10;;
34317;SDS011;20582;52.196;20.952;2023-02-13T10:24:10;24.77;;;12.57;;
34317;SDS011;20582;52.196;20.952;2023-02-13T10:26:38;23.63;;;11.90;;
34317;SDS011;20582;52.196;20.952;2023-02-13T10:29:23;25.52;;;12.88;;
34317;SDS011;20582;52.196;20.952;2023-02-13T10:32:10;23.58;;;13.48;;
34317;SDS011;20582;52.196;20.952;2023-02-13T10:34:38;28.77;;;14.57;;
34317;SDS011;20582;52.196;20.952;2023-02-13T10:37:14;21.73;;;12.95;;
34317;SDS011;20582;52.196;20.952;2023-02-13T10:39:42;22.33;;;11.55;;
34317;SDS011;20582;52.196;20.952;2023-02-13T10:47:25;23.50;;;13.63;;
34317;SDS011;20582;52.196;20.952;2023-02-13T10:50:18;24.17;;;14.35;;
34317;SDS011;20582;52.196;20.952;2023-02-13T11:00:34;35.33;;;19.23;;
34317;SDS011;20582;52.196;20.952;2023-02-13T11:03:02;45.85;;;19.55;;
34317;SDS011;20582;52.196;20.952;2023-02-13T11:05:32;43.70;;;19.15;;
34317;SDS011;20582;52.196;20.952;2023-02-13T11:07:58;44.55;;;18.88;;
34317;SDS011;20582;52.196;20.952;2023-02-13T11:10:26;54.72;;;21.15;;
34317;SDS011;20582;52.196;20.952;2023-02-13T11:12:52;45.72;;;19.77;;
34317;SDS011;20582;52.196;20.952;2023-02-13T11:15:25;38.30;;;18.27;;
34317;SDS011;20582;52.196;20.952;2023-02-13T11:17:52;50.53;;;22.85;;
34317;SDS011;20582;52.196;20.952;2023-02-13T11:20:31;29.15;;;14.25;;
34317;SDS011;20582;52.196;20.952;2023-02-13T11:23:18;25.13;;;12.95;;
34317;SDS011;20582;52.196;20.952;2023-02-13T11:25:57;26.45;;;13.88;;
34317;SDS011;20582;52.196;20.952;2023-02-13T11:28:24;23.25;;;13.07;;
34317;SDS011;20582;52.196;20.952;2023-02-13T11:30:50;25.10;;;14.02;;
34317;SDS011;20582;52.196;20.952;2023-02-13T11:35:43;24.60;;;13.50;;
34317;SDS011;20582;52.196;20.952;2023-02-13T11:40:45;26.73;;;14.07;;
34317;SDS011;20582;52.196;20.952;2023-02-13T11:45:43;20.95;;;11.63;;
34317;SDS011;20582;52.196;20.952;2023-02-13T11:48:17;20.42;;;11.15;;
34317;SDS011;20582;52.196;20.952;2023-02-13T11:50:49;22.30;;;11.95;;
34317;SDS011;20582;52.196;20.952;2023-02-13T11:53:19;20.17;;;10.52;;
34317;SDS011;20582;52.196;20.952;2023-02-13T11:55:59;22.58;;;12.55;;
34317;SDS011;20582;52.196;20.952;2023-02-13T11:58:27;21.15;;;11.75;;
34317;SDS011;20582;52.196;20.952;2023-02-13T12:03:39;19.95;;;11.75;;
34317;SDS011;20582;52.196;20.952;2023-02-13T12:06:13;23.20;;;12.65;;
34317;SDS011;20582;52.196;20.952;2023-02-13T12:08:41;21.60;;;12.35;;
34317;SDS011;20582;52.196;20.952;2023-02-13T12:13:52;22.67;;;12.40;;
34317;SDS011;20582;52.196;20.952;2023-02-13T12:16:36;23.33;;;12.32;;
34317;SDS011;20582;52.196;20.952;2023-02-13T12:19:09;22.45;;;12.63;;
34317;SDS011;20582;52.196;20.952;2023-02-13T12:26:42;20.48;;;12.45;;
34317;SDS011;20582;52.196;20.952;2023-02-13T12:43:58;20.83;;;12.05;;
34317;SDS011;20582;52.196;20.952;2023-02-13T12:46:33;20.88;;;11.25;;
34317;SDS011;20582;52.196;20.952;2023-02-13T12:51:43;19.13;;;11.63;;
34317;SDS011;20582;52.196;20.952;2023-02-13T13:04:46;23.63;;;11.93;;
34317;SDS011;20582;52.196;20.952;2023-02-13T13:07:21;24.70;;;12.55;;
34317;SDS011;20582;52.196;20.952;2023-02-13T13:17:37;23.35;;;12.07;;
34317;SDS011;20582;52.196;20.952;2023-02-13T13:22:43;23.65;;;12.75;;
34317;SDS011;20582;52.196;20.952;2023-02-13T13:27:57;21.63;;;12.15;;
34317;SDS011;20582;52.196;20.952;2023-02-13T13:30:33;22.17;;;11.85;;
34317;SDS011;20582;52.196;20.952;2023-02-13T13:33:01;23.65;;;11.43;;
34317;SDS011;20582;52.196;20.952;2023-02-13T13:35:28;23.40;;;12.50;;
34317;SDS011;20582;52.196;20.952;2023-02-13T13:37:58;26.50;;;14.20;;
34317;SDS011;20582;52.196;20.952;2023-02-13T13:40:37;20.83;;;11.43;;
34317;SDS011;20582;52.196;20.952;2023-02-13T13:43:23;30.00;;;16.00;;
34317;SDS011;20582;52.196;20.952;2023-02-13T13:48:33;22.77;;;12.05;;
34317;SDS011;20582;52.196;20.952;2023-02-13T13:51:02;21.02;;;12.65;;
34317;SDS011;20582;52.196;20.952;2023-02-13T13:53:29;25.08;;;12.23;;
34317;SDS011;20582;52.196;20.952;2023-02-13T14:03:56;25.20;;;12.00;;
34317;SDS011;20582;52.196;20.952;2023-02-13T14:06:25;21.83;;;11.52;;
34317;SDS011;20582;52.196;20.952;2023-02-13T14:08:52;21.15;;;11.27;;
34317;SDS011;20582;52.196;20.952;2023-02-13T14:11:38;22.83;;;11.93;;
34317;SDS011;20582;52.196;20.952;2023-02-13T14:16:49;23.38;;;12.18;;
34317;SDS011;20582;52.196;20.952;2023-02-13T14:21:47;18.20;;;10.38;;
34317;SDS011;20582;52.196;20.952;2023-02-13T14:24:15;22.25;;;11.75;;
34317;SDS011;20582;52.196;20.952;2023-02-13T14:26:48;18.75;;;11.00;;
34317;SDS011;20582;52.196;20.952;2023-02-13T14:31:56;21.25;;;10.73;;
34317;SDS011;20582;52.196;20.952;2023-02-13T14:34:24;19.55;;;10.85;;
34317;SDS011;20582;52.196;20.952;2023-02-13T14:39:41;21.27;;;10.93;;
34317;SDS011;20582;52.196;20.952;2023-02-13T14:42:22;18.73;;;10.27;;
34317;SDS011;20582;52.196;20.952;2023-02-13T14:44:50;20.05;;;10.32;;
34317;SDS011;20582;52.196;20.952;2023-02-13T14:47:18;22.45;;;10.38;;
34317;SDS011;20582;52.196;20.952;2023-02-13T14:49:46;22.10;;;10.07;;
34317;SDS011;20582;52.196;20.952;2023-02-13T14:52:17;20.02;;;9.43;;
34317;SDS011;20582;52.196;20.952;2023-02-13T14:54:49;17.73;;;10.05;;
34317;SDS011;20582;52.196;20.952;2023-02-13T14:57:18;19.15;;;9.82;;
34317;SDS011;20582;52.196;20.952;2023-02-13T14:59:52;20.60;;;9.63;;
34317;SDS011;20582;52.196;20.952;2023-02-13T15:02:23;19.27;;;10.05;;
34317;SDS011;20582;52.196;20.952;2023-02-13T15:04:53;20.83;;;9.43;;
34317;SDS011;20582;52.196;20.952;2023-02-13T15:07:21;17.27;;;9.05;;
34317;SDS011;20582;52.196;20.952;2023-02-13T15:12:35;17.23;;;9.35;;
34317;SDS011;20582;52.196;20.952;2023-02-13T15:15:06;20.67;;;9.93;;
34317;SDS011;20582;52.196;20.952;2023-02-13T15:17:42;22.48;;;10.05;;
34317;SDS011;20582;52.196;20.952;2023-02-13T15:22:38;19.67;;;8.80;;
34317;SDS011;20582;52.196;20.952;2023-02-13T15:25:05;17.25;;;8.50;;
34317;SDS011;20582;52.196;20.952;2023-02-13T15:27:33;18.13;;;8.48;;
34317;SDS011;20582;52.196;20.952;2023-02-13T15:30:02;22.70;;;8.68;;
34317;SDS011;20582;52.196;20.952;2023-02-13T15:32:30;18.77;;;8.45;;
34317;SDS011;20582;52.196;20.952;2023-02-13T15:34:56;20.00;;;9.55;;
34317;SDS011;20582;52.196;20.952;2023-02-13T15:37:23;21.13;;;8.73;;
34317;SDS011;20582;52.196;20.952;2023-02-13T15:39:49;20.13;;;10.45;;
34317;SDS011;20582;52.196;20.952;2023-02-13T15:42:15;22.40;;;9.50;;
34317;SDS011;20582;52.196;20.952;2023-02-13T15:44:42;20.17;;;8.95;;
34317;SDS011;20582;52.196;20.952;2023-02-13T15:47:22;18.13;;;10.00;;
34317;SDS011;20582;52.196;20.952;2023-02-13T15:49:51;21.88;;;9.65;;
34317;SDS011;20582;52.196;20.952;2023-02-13T15:52:22;22.58;;;10.07;;
34317;SDS011;20582;52.196;20.952;2023-02-13T15:54:52;26.70;;;11.07;;
34317;SDS011;20582;52.196;20.952;2023-02-13T15:57:19;25.52;;;11.55;;
34317;SDS011;20582;52.196;20.952;2023-02-13T15:59:45;23.30;;;10.65;;
34317;SDS011;20582;52.196;20.952;2023-02-13T16:05:11;23.33;;;11.38;;
34317;SDS011;20582;52.196;20.952;2023-02-13T16:07:48;17.48;;;9.20;;
34317;SDS011;20582;52.196;20.952;2023-02-13T16:10:24;20.15;;;9.40;;
34317;SDS011;20582;52.196;20.952;2023-02-13T16:12:50;24.17;;;10.05;;
34317;SDS011;20582;52.196;20.952;2023-02-13T16:15:17;22.13;;;10.00;;
34317;SDS011;20582;52.196;20.952;2023-02-13T16:17:44;20.90;;;8.75;;
34317;SDS011;20582;52.196;20.952;2023-02-13T16:22:38;19.17;;;9.60;;
34317;SDS011;20582;52.196;20.952;2023-02-13T16:27:41;23.83;;;9.65;;
34317;SDS011;20582;52.196;20.952;2023-02-13T16:30:26;19.33;;;9.52;;
34317;SDS011;20582;52.196;20.952;2023-02-13T16:33:07;22.38;;;10.05;;
34317;SDS011;20582;52.196;20.952;2023-02-13T16:35:34;21.55;;;9.63;;
34317;SDS011;20582;52.196;20.952;2023-02-13T16:38:02;18.90;;;10.25;;
34317;SDS011;20582;52.196;20.952;2023-02-13T16:40:41;22.15;;;9.07;;
34317;SDS011;20582;52.196;20.952;2023-02-13T16:45:52;19.65;;;9.60;;
34317;SDS011;20582;52.196;20.952;2023-02-13T16:48:18;16.45;;;8.95;;
34317;SDS011;20582;52.196;20.952;2023-02-13T16:50:44;17.63;;;8.88;;
34317;SDS011;20582;52.196;20.952;2023-02-13T16:53:10;19.20;;;9.70;;
34317;SDS011;20582;52.196;20.952;2023-02-13T16:55:36;21.63;;;9.05;;
34317;SDS011;20582;52.196;20.952;2023-02-13T16:58:02;19.00;;;8.80;;
34317;SDS011;20582;52.196;20.952;2023-02-13T17:00:29;15.45;;;8.77;;
34317;SDS011;20582;52.196;20.952;2023-02-13T17:02:56;18.23;;;8.18;;
34317;SDS011;20582;52.196;20.952;2023-02-13T17:05:23;20.00;;;9.00;;
34317;SDS011;20582;52.196;20.952;2023-02-13T17:07:51;19.02;;;7.95;;
34317;SDS011;20582;52.196;20.952;2023-02-13T17:12:48;19.83;;;9.00;;
34317;SDS011;20582;52.196;20.952;2023-02-13T17:15:16;17.73;;;7.95;;
34317;SDS011;20582;52.196;20.952;2023-02-13T17:17:42;20.98;;;8.98;;